sensor_id;sensor_type;location;lat;lon;timestamp;P1;durP1;ratioP1;P2;durP2;ratioP2
48367;SDS011;34173;47.446;18.912;2022-10-12T00:00:02;18.95;;;11.07;;
48367;SDS011;34173;47.446;18.912;2022-10-12T00:02:38;16.48;;;10.43;;
48367;SDS011;34173;47.446;18.912;2022-10-12T00:05:07;19.25;;;10.93;;
48367;SDS011;34173;47.446;18.912;2022-10-12T00:07:34;18.48;;;10.25;;
48367;SDS011;34173;47.446;18.912;2022-10-12T00:10:02;15.07;;;10.00;;
48367;SDS011;34173;47.446;18.912;2022-10-12T00:12:31;18.52;;;11.00;;
48367;SDS011;34173;47.446;18.912;2022-10-12T00:14:58;17.65;;;10.50;;
48367;SDS011;34173;47.446;18.912;2022-10-12T00:17:26;17.77;;;11.60;;
48367;SDS011;34173;47.446;18.912;2022-10-12T00:19:53;14.82;;;10.25;;
48367;SDS011;34173;47.446;18.912;2022-10-12T00:22:21;17.45;;;10.88;;
48367;SDS011;34173;47.446;18.912;2022-10-12T00:24:48;17.60;;;10.65;;
48367;SDS011;34173;47.446;18.912;2022-10-12T00:27:16;20.10;;;11.38;;
48367;SDS011;34173;47.446;18.912;2022-10-12T00:29:43;17.02;;;10.27;;
48367;SDS011;34173;47.446;18.912;2022-10-12T00:32:11;17.37;;;10.70;;
48367;SDS011;34173;47.446;18.912;2022-10-12T00:34:38;18.08;;;11.00;;
48367;SDS011;34173;47.446;18.912;2022-10-12T00:37:06;21.05;;;11.35;;
48367;SDS011;34173;47.446;18.912;2022-10-12T00:39:33;20.35;;;11.98;;
48367;SDS011;34173;47.446;18.912;2022-10-12T00:42:01;18.42;;;11.57;;
48367;SDS011;34173;47.446;18.912;2022-10-12T00:44:36;16.98;;;11.40;;
48367;SDS011;34173;47.446;18.912;2022-10-12T00:47:07;20.55;;;11.80;;
48367;SDS011;34173;47.446;18.912;2022-10-12T00:52:25;18.20;;;11.38;;
48367;SDS011;34173;47.446;18.912;2022-10-12T00:54:55;18.95;;;11.20;;
48367;SDS011;34173;47.446;18.912;2022-10-12T00:57:22;18.55;;;11.18;;
48367;SDS011;34173;47.446;18.912;2022-10-12T00:59:51;22.00;;;11.73;;
48367;SDS011;34173;47.446;18.912;2022-10-12T01:02:25;18.80;;;11.63;;
48367;SDS011;34173;47.446;18.912;2022-10-12T01:04:53;18.12;;;11.02;;
48367;SDS011;34173;47.446;18.912;2022-10-12T01:07:21;18.45;;;11.75;;
48367;SDS011;34173;47.446;18.912;2022-10-12T01:09:48;18.12;;;11.00;;
48367;SDS011;34173;47.446;18.912;2022-10-12T01:12:17;19.60;;;11.40;;
48367;SDS011;34173;47.446;18.912;2022-10-12T01:14:44;16.85;;;10.35;;
48367;SDS011;34173;47.446;18.912;2022-10-12T01:25:47;18.33;;;11.12;;
48367;SDS011;34173;47.446;18.912;2022-10-12T01:31:07;18.27;;;11.00;;
48367;SDS011;34173;47.446;18.912;2022-10-12T01:33:42;19.35;;;11.77;;
48367;SDS011;34173;47.446;18.912;2022-10-12T01:36:23;16.02;;;10.40;;
48367;SDS011;34173;47.446;18.912;2022-10-12T01:39:14;20.02;;;10.60;;
48367;SDS011;34173;47.446;18.912;2022-10-12T01:41:46;16.83;;;11.12;;
48367;SDS011;34173;47.446;18.912;2022-10-12T01:44:20;16.52;;;11.15;;
48367;SDS011;34173;47.446;18.912;2022-10-12T01:46:49;18.92;;;12.05;;
48367;SDS011;34173;47.446;18.912;2022-10-12T01:49:18;18.65;;;10.00;;
48367;SDS011;34173;47.446;18.912;2022-10-12T01:51:57;16.30;;;9.95;;
48367;SDS011;34173;47.446;18.912;2022-10-12T02:00:10;16.37;;;10.55;;
48367;SDS011;34173;47.446;18.912;2022-10-12T02:08:22;16.80;;;10.55;;
48367;SDS011;34173;47.446;18.912;2022-10-12T02:10:56;18.70;;;10.95;;
48367;SDS011;34173;47.446;18.912;2022-10-12T02:14:02;17.45;;;10.00;;
48367;SDS011;34173;47.446;18.912;2022-10-12T02:16:38;17.70;;;10.45;;
48367;SDS011;34173;47.446;18.912;2022-10-12T02:19:09;14.80;;;9.68;;
48367;SDS011;34173;47.446;18.912;2022-10-12T02:21:38;16.10;;;10.63;;
48367;SDS011;34173;47.446;18.912;2022-10-12T02:24:07;16.12;;;10.60;;
48367;SDS011;34173;47.446;18.912;2022-10-12T02:26:36;15.82;;;10.30;;
48367;SDS011;34173;47.446;18.912;2022-10-12T02:29:12;15.00;;;10.43;;
48367;SDS011;34173;47.446;18.912;2022-10-12T02:34:25;15.60;;;10.80;;
48367;SDS011;34173;47.446;18.912;2022-10-12T02:39:35;16.85;;;11.38;;
48367;SDS011;34173;47.446;18.912;2022-10-12T02:42:06;17.75;;;11.55;;
48367;SDS011;34173;47.446;18.912;2022-10-12T02:44:37;17.75;;;11.43;;
48367;SDS011;34173;47.446;18.912;2022-10-12T02:47:06;15.55;;;10.27;;
48367;SDS011;34173;47.446;18.912;2022-10-12T02:49:35;15.07;;;10.30;;
48367;SDS011;34173;47.446;18.912;2022-10-12T02:52:04;13.57;;;10.02;;
48367;SDS011;34173;47.446;18.912;2022-10-12T02:54:32;13.93;;;9.70;;
48367;SDS011;34173;47.446;18.912;2022-10-12T02:57:00;13.82;;;9.90;;
48367;SDS011;34173;47.446;18.912;2022-10-12T02:59:27;14.55;;;10.13;;
48367;SDS011;34173;47.446;18.912;2022-10-12T03:01:55;18.42;;;10.82;;
48367;SDS011;34173;47.446;18.912;2022-10-12T03:04:22;16.42;;;9.68;;
48367;SDS011;34173;47.446;18.912;2022-10-12T03:06:50;16.20;;;10.55;;
48367;SDS011;34173;47.446;18.912;2022-10-12T03:09:17;17.00;;;10.32;;
48367;SDS011;34173;47.446;18.912;2022-10-12T03:11:45;16.55;;;9.63;;
48367;SDS011;34173;47.446;18.912;2022-10-12T03:14:14;16.10;;;10.50;;
48367;SDS011;34173;47.446;18.912;2022-10-12T03:16:43;14.32;;;10.63;;
48367;SDS011;34173;47.446;18.912;2022-10-12T03:19:12;16.30;;;9.60;;
48367;SDS011;34173;47.446;18.912;2022-10-12T03:21:40;17.25;;;10.35;;
48367;SDS011;34173;47.446;18.912;2022-10-12T03:24:07;15.60;;;10.05;;
48367;SDS011;34173;47.446;18.912;2022-10-12T03:26:35;14.75;;;10.25;;
48367;SDS011;34173;47.446;18.912;2022-10-12T03:29:02;18.60;;;12.02;;
48367;SDS011;34173;47.446;18.912;2022-10-12T03:31:30;16.30;;;11.32;;
48367;SDS011;34173;47.446;18.912;2022-10-12T03:33:58;17.55;;;11.05;;
48367;SDS011;34173;47.446;18.912;2022-10-12T03:36:25;19.95;;;11.45;;
48367;SDS011;34173;47.446;18.912;2022-10-12T03:38:53;17.52;;;12.23;;
48367;SDS011;34173;47.446;18.912;2022-10-12T03:41:20;21.60;;;12.20;;
48367;SDS011;34173;47.446;18.912;2022-10-12T03:43:48;20.65;;;12.65;;
48367;SDS011;34173;47.446;18.912;2022-10-12T03:46:15;18.85;;;12.10;;
48367;SDS011;34173;47.446;18.912;2022-10-12T03:48:43;18.17;;;12.18;;
48367;SDS011;34173;47.446;18.912;2022-10-12T03:51:10;21.62;;;12.48;;
48367;SDS011;34173;47.446;18.912;2022-10-12T03:53:38;21.30;;;13.70;;
48367;SDS011;34173;47.446;18.912;2022-10-12T03:56:11;20.52;;;12.30;;
48367;SDS011;34173;47.446;18.912;2022-10-12T03:58:39;18.58;;;12.30;;
48367;SDS011;34173;47.446;18.912;2022-10-12T04:01:06;21.80;;;12.00;;
48367;SDS011;34173;47.446;18.912;2022-10-12T04:03:34;18.60;;;12.20;;
48367;SDS011;34173;47.446;18.912;2022-10-12T04:06:02;17.75;;;11.48;;
48367;SDS011;34173;47.446;18.912;2022-10-12T04:08:30;16.33;;;11.20;;
48367;SDS011;34173;47.446;18.912;2022-10-12T04:10:57;18.85;;;11.75;;
48367;SDS011;34173;47.446;18.912;2022-10-12T04:13:25;21.15;;;12.52;;
48367;SDS011;34173;47.446;18.912;2022-10-12T04:15:52;20.60;;;11.65;;
48367;SDS011;34173;47.446;18.912;2022-10-12T04:18:20;19.55;;;11.90;;
48367;SDS011;34173;47.446;18.912;2022-10-12T04:20:47;18.55;;;11.38;;
48367;SDS011;34173;47.446;18.912;2022-10-12T04:23:15;20.92;;;11.63;;
48367;SDS011;34173;47.446;18.912;2022-10-12T04:25:42;22.67;;;11.85;;
48367;SDS011;34173;47.446;18.912;2022-10-12T04:28:10;19.98;;;12.25;;
48367;SDS011;34173;47.446;18.912;2022-10-12T04:30:38;18.50;;;11.75;;
48367;SDS011;34173;47.446;18.912;2022-10-12T04:33:06;21.55;;;11.82;;
48367;SDS011;34173;47.446;18.912;2022-10-12T04:35:34;19.50;;;12.18;;
48367;SDS011;34173;47.446;18.912;2022-10-12T04:38:02;20.00;;;12.85;;
48367;SDS011;34173;47.446;18.912;2022-10-12T04:40:30;24.80;;;13.52;;
48367;SDS011;34173;47.446;18.912;2022-10-12T04:42:58;23.02;;;12.75;;
48367;SDS011;34173;47.446;18.912;2022-10-12T04:45:25;22.95;;;13.30;;
48367;SDS011;34173;47.446;18.912;2022-10-12T04:47:54;21.20;;;13.48;;
48367;SDS011;34173;47.446;18.912;2022-10-12T04:50:22;21.60;;;13.48;;
48367;SDS011;34173;47.446;18.912;2022-10-12T04:52:59;22.27;;;14.15;;
48367;SDS011;34173;47.446;18.912;2022-10-12T04:55:27;20.30;;;12.65;;
48367;SDS011;34173;47.446;18.912;2022-10-12T04:57:55;21.45;;;12.48;;
48367;SDS011;34173;47.446;18.912;2022-10-12T05:00:24;19.67;;;12.07;;
48367;SDS011;34173;47.446;18.912;2022-10-12T05:02:51;18.27;;;12.15;;
48367;SDS011;34173;47.446;18.912;2022-10-12T05:05:19;18.58;;;11.93;;
48367;SDS011;34173;47.446;18.912;2022-10-12T05:07:46;21.40;;;12.70;;
48367;SDS011;34173;47.446;18.912;2022-10-12T05:10:14;21.15;;;12.60;;
48367;SDS011;34173;47.446;18.912;2022-10-12T05:12:41;24.75;;;12.77;;
48367;SDS011;34173;47.446;18.912;2022-10-12T05:15:09;20.92;;;11.70;;
48367;SDS011;34173;47.446;18.912;2022-10-12T05:17:37;21.73;;;11.68;;
48367;SDS011;34173;47.446;18.912;2022-10-12T05:20:05;19.42;;;11.68;;
48367;SDS011;34173;47.446;18.912;2022-10-12T05:22:34;17.83;;;11.98;;
48367;SDS011;34173;47.446;18.912;2022-10-12T05:25:02;21.15;;;11.73;;
48367;SDS011;34173;47.446;18.912;2022-10-12T05:27:30;19.20;;;11.48;;
48367;SDS011;34173;47.446;18.912;2022-10-12T05:29:57;21.17;;;11.93;;
48367;SDS011;34173;47.446;18.912;2022-10-12T05:32:25;20.20;;;11.70;;
48367;SDS011;34173;47.446;18.912;2022-10-12T05:34:52;20.92;;;12.25;;
48367;SDS011;34173;47.446;18.912;2022-10-12T05:37:21;19.70;;;11.85;;
48367;SDS011;34173;47.446;18.912;2022-10-12T05:39:49;20.52;;;12.45;;
48367;SDS011;34173;47.446;18.912;2022-10-12T05:42:17;24.73;;;13.00;;
48367;SDS011;34173;47.446;18.912;2022-10-12T05:44:45;20.15;;;13.62;;
48367;SDS011;34173;47.446;18.912;2022-10-12T05:47:12;20.90;;;14.27;;
48367;SDS011;34173;47.446;18.912;2022-10-12T05:49:39;23.17;;;13.73;;
48367;SDS011;34173;47.446;18.912;2022-10-12T05:52:07;24.00;;;13.85;;
48367;SDS011;34173;47.446;18.912;2022-10-12T05:54:35;23.60;;;12.98;;
48367;SDS011;34173;47.446;18.912;2022-10-12T05:57:02;26.62;;;14.43;;
48367;SDS011;34173;47.446;18.912;2022-10-12T05:59:30;24.02;;;14.15;;
48367;SDS011;34173;47.446;18.912;2022-10-12T06:01:57;25.27;;;14.05;;
48367;SDS011;34173;47.446;18.912;2022-10-12T06:04:25;23.33;;;14.30;;
48367;SDS011;34173;47.446;18.912;2022-10-12T06:06:52;27.75;;;15.98;;
48367;SDS011;34173;47.446;18.912;2022-10-12T06:09:19;23.90;;;14.87;;
48367;SDS011;34173;47.446;18.912;2022-10-12T06:11:47;25.35;;;14.02;;
48367;SDS011;34173;47.446;18.912;2022-10-12T06:14:15;22.75;;;14.60;;
48367;SDS011;34173;47.446;18.912;2022-10-12T06:16:42;21.58;;;14.48;;
48367;SDS011;34173;47.446;18.912;2022-10-12T06:19:10;21.15;;;13.23;;
48367;SDS011;34173;47.446;18.912;2022-10-12T06:21:38;20.02;;;12.90;;
48367;SDS011;34173;47.446;18.912;2022-10-12T06:24:05;23.30;;;13.32;;
48367;SDS011;34173;47.446;18.912;2022-10-12T06:26:33;20.42;;;13.40;;
48367;SDS011;34173;47.446;18.912;2022-10-12T06:29:01;21.25;;;13.23;;
48367;SDS011;34173;47.446;18.912;2022-10-12T06:31:28;26.85;;;14.20;;
48367;SDS011;34173;47.446;18.912;2022-10-12T06:33:56;21.20;;;13.32;;
48367;SDS011;34173;47.446;18.912;2022-10-12T06:36:23;24.05;;;14.60;;
48367;SDS011;34173;47.446;18.912;2022-10-12T06:38:51;27.33;;;16.87;;
48367;SDS011;34173;47.446;18.912;2022-10-12T06:41:18;31.45;;;18.25;;
48367;SDS011;34173;47.446;18.912;2022-10-12T06:43:46;30.30;;;18.67;;
48367;SDS011;34173;47.446;18.912;2022-10-12T06:46:13;30.90;;;16.17;;
48367;SDS011;34173;47.446;18.912;2022-10-12T06:48:41;22.65;;;14.98;;
48367;SDS011;34173;47.446;18.912;2022-10-12T06:51:08;23.62;;;14.30;;
48367;SDS011;34173;47.446;18.912;2022-10-12T06:53:35;22.90;;;13.75;;
48367;SDS011;34173;47.446;18.912;2022-10-12T06:56:07;20.80;;;13.65;;
48367;SDS011;34173;47.446;18.912;2022-10-12T06:58:35;18.40;;;11.35;;
48367;SDS011;34173;47.446;18.912;2022-10-12T07:01:03;18.40;;;12.37;;
48367;SDS011;34173;47.446;18.912;2022-10-12T07:03:32;18.08;;;11.50;;
48367;SDS011;34173;47.446;18.912;2022-10-12T07:06:04;24.12;;;12.15;;
48367;SDS011;34173;47.446;18.912;2022-10-12T07:08:33;19.37;;;12.43;;
48367;SDS011;34173;47.446;18.912;2022-10-12T07:11:02;18.33;;;12.23;;
48367;SDS011;34173;47.446;18.912;2022-10-12T07:13:30;20.23;;;12.10;;
48367;SDS011;34173;47.446;18.912;2022-10-12T07:15:58;20.33;;;12.75;;
48367;SDS011;34173;47.446;18.912;2022-10-12T07:18:25;21.12;;;12.88;;
48367;SDS011;34173;47.446;18.912;2022-10-12T07:20:55;17.75;;;11.68;;
48367;SDS011;34173;47.446;18.912;2022-10-12T07:23:25;19.12;;;11.90;;
48367;SDS011;34173;47.446;18.912;2022-10-12T07:25:53;18.83;;;11.70;;
48367;SDS011;34173;47.446;18.912;2022-10-12T07:28:20;17.23;;;11.73;;
48367;SDS011;34173;47.446;18.912;2022-10-12T07:30:48;20.50;;;12.05;;
48367;SDS011;34173;47.446;18.912;2022-10-12T07:33:16;18.20;;;12.18;;
48367;SDS011;34173;47.446;18.912;2022-10-12T07:35:51;18.27;;;11.18;;
48367;SDS011;34173;47.446;18.912;2022-10-12T07:38:39;18.75;;;11.25;;
48367;SDS011;34173;47.446;18.912;2022-10-12T07:41:10;20.25;;;10.77;;
48367;SDS011;34173;47.446;18.912;2022-10-12T07:43:38;17.33;;;10.73;;
48367;SDS011;34173;47.446;18.912;2022-10-12T07:46:05;19.42;;;10.70;;
48367;SDS011;34173;47.446;18.912;2022-10-12T07:48:33;19.10;;;11.00;;
48367;SDS011;34173;47.446;18.912;2022-10-12T07:51:04;17.37;;;10.00;;
48367;SDS011;34173;47.446;18.912;2022-10-12T07:53:37;17.42;;;10.15;;
48367;SDS011;34173;47.446;18.912;2022-10-12T07:56:05;20.25;;;11.68;;
48367;SDS011;34173;47.446;18.912;2022-10-12T07:58:35;13.68;;;9.88;;
48367;SDS011;34173;47.446;18.912;2022-10-12T08:01:07;21.30;;;10.63;;
48367;SDS011;34173;47.446;18.912;2022-10-12T08:03:35;15.48;;;10.23;;
48367;SDS011;34173;47.446;18.912;2022-10-12T08:06:13;16.50;;;8.82;;
48367;SDS011;34173;47.446;18.912;2022-10-12T08:08:42;15.52;;;9.32;;
48367;SDS011;34173;47.446;18.912;2022-10-12T08:11:10;16.52;;;10.07;;
48367;SDS011;34173;47.446;18.912;2022-10-12T08:13:38;15.57;;;9.60;;
48367;SDS011;34173;47.446;18.912;2022-10-12T08:16:11;18.48;;;9.93;;
48367;SDS011;34173;47.446;18.912;2022-10-12T08:18:40;14.93;;;9.23;;
48367;SDS011;34173;47.446;18.912;2022-10-12T08:21:08;17.17;;;9.98;;
48367;SDS011;34173;47.446;18.912;2022-10-12T08:23:36;15.50;;;9.68;;
48367;SDS011;34173;47.446;18.912;2022-10-12T08:26:04;16.85;;;8.68;;
48367;SDS011;34173;47.446;18.912;2022-10-12T08:28:33;19.08;;;9.93;;
48367;SDS011;34173;47.446;18.912;2022-10-12T08:31:08;18.30;;;9.77;;
48367;SDS011;34173;47.446;18.912;2022-10-12T08:33:38;15.55;;;9.32;;
48367;SDS011;34173;47.446;18.912;2022-10-12T08:36:06;17.87;;;10.23;;
48367;SDS011;34173;47.446;18.912;2022-10-12T08:38:34;16.05;;;9.63;;
48367;SDS011;34173;47.446;18.912;2022-10-12T08:44:21;15.02;;;9.35;;
48367;SDS011;34173;47.446;18.912;2022-10-12T08:47:01;14.07;;;9.40;;
48367;SDS011;34173;47.446;18.912;2022-10-12T08:49:31;14.73;;;9.68;;
48367;SDS011;34173;47.446;18.912;2022-10-12T08:52:00;15.65;;;9.40;;
48367;SDS011;34173;47.446;18.912;2022-10-12T08:54:35;18.90;;;9.93;;
48367;SDS011;34173;47.446;18.912;2022-10-12T08:57:07;17.25;;;9.63;;
48367;SDS011;34173;47.446;18.912;2022-10-12T08:59:39;16.40;;;9.55;;
48367;SDS011;34173;47.446;18.912;2022-10-12T09:05:26;13.73;;;9.63;;
48367;SDS011;34173;47.446;18.912;2022-10-12T09:08:02;13.10;;;9.00;;
48367;SDS011;34173;47.446;18.912;2022-10-12T09:10:45;17.48;;;9.93;;
48367;SDS011;34173;47.446;18.912;2022-10-12T09:16:00;15.32;;;9.77;;
48367;SDS011;34173;47.446;18.912;2022-10-12T09:18:38;15.63;;;10.05;;
48367;SDS011;34173;47.446;18.912;2022-10-12T09:21:07;14.85;;;9.23;;
48367;SDS011;34173;47.446;18.912;2022-10-12T09:23:40;15.20;;;9.35;;
48367;SDS011;34173;47.446;18.912;2022-10-12T09:26:14;12.70;;;8.90;;
48367;SDS011;34173;47.446;18.912;2022-10-12T09:29:02;14.65;;;8.73;;
48367;SDS011;34173;47.446;18.912;2022-10-12T09:32:12;14.05;;;8.50;;
48367;SDS011;34173;47.446;18.912;2022-10-12T09:34:44;11.95;;;8.02;;
48367;SDS011;34173;47.446;18.912;2022-10-12T09:37:14;12.30;;;8.73;;
48367;SDS011;34173;47.446;18.912;2022-10-12T09:39:45;11.75;;;8.25;;
48367;SDS011;34173;47.446;18.912;2022-10-12T09:42:12;15.48;;;8.52;;
48367;SDS011;34173;47.446;18.912;2022-10-12T09:44:51;16.45;;;8.32;;
48367;SDS011;34173;47.446;18.912;2022-10-12T09:47:25;17.70;;;8.18;;
48367;SDS011;34173;47.446;18.912;2022-10-12T09:49:58;16.77;;;8.87;;
48367;SDS011;34173;47.446;18.912;2022-10-12T09:52:38;12.02;;;8.00;;
48367;SDS011;34173;47.446;18.912;2022-10-12T09:57:38;16.65;;;9.02;;
48367;SDS011;34173;47.446;18.912;2022-10-12T10:02:53;12.55;;;8.30;;
48367;SDS011;34173;47.446;18.912;2022-10-12T10:05:26;15.40;;;7.95;;
48367;SDS011;34173;47.446;18.912;2022-10-12T10:08:16;11.80;;;8.43;;
48367;SDS011;34173;47.446;18.912;2022-10-12T10:10:49;11.30;;;7.62;;
48367;SDS011;34173;47.446;18.912;2022-10-12T10:13:19;11.25;;;7.20;;
48367;SDS011;34173;47.446;18.912;2022-10-12T10:15:51;13.68;;;7.57;;
48367;SDS011;34173;47.446;18.912;2022-10-12T10:21:33;13.18;;;7.32;;
48367;SDS011;34173;47.446;18.912;2022-10-12T10:24:03;11.57;;;6.57;;
48367;SDS011;34173;47.446;18.912;2022-10-12T10:34:40;11.77;;;7.82;;
48367;SDS011;34173;47.446;18.912;2022-10-12T10:37:12;12.77;;;6.87;;
48367;SDS011;34173;47.446;18.912;2022-10-12T10:39:49;11.52;;;7.50;;
48367;SDS011;34173;47.446;18.912;2022-10-12T10:42:20;13.18;;;7.22;;
48367;SDS011;34173;47.446;18.912;2022-10-12T10:44:51;14.02;;;8.52;;
48367;SDS011;34173;47.446;18.912;2022-10-12T10:47:24;14.18;;;7.05;;
48367;SDS011;34173;47.446;18.912;2022-10-12T10:49:56;12.77;;;7.05;;
48367;SDS011;34173;47.446;18.912;2022-10-12T10:52:34;10.85;;;6.40;;
48367;SDS011;34173;47.446;18.912;2022-10-12T10:55:14;11.85;;;6.50;;
48367;SDS011;34173;47.446;18.912;2022-10-12T11:00:28;11.65;;;7.28;;
48367;SDS011;34173;47.446;18.912;2022-10-12T11:03:16;16.05;;;7.62;;
48367;SDS011;34173;47.446;18.912;2022-10-12T11:09:04;9.77;;;6.43;;
48367;SDS011;34173;47.446;18.912;2022-10-12T11:11:36;9.02;;;6.18;;
48367;SDS011;34173;47.446;18.912;2022-10-12T11:14:15;13.18;;;6.45;;
48367;SDS011;34173;47.446;18.912;2022-10-12T11:16:47;11.02;;;6.25;;
48367;SDS011;34173;47.446;18.912;2022-10-12T11:19:41;15.20;;;6.53;;
48367;SDS011;34173;47.446;18.912;2022-10-12T11:24:40;13.48;;;6.75;;
48367;SDS011;34173;47.446;18.912;2022-10-12T11:29:48;11.30;;;6.55;;
48367;SDS011;34173;47.446;18.912;2022-10-12T11:32:35;12.73;;;6.80;;
48367;SDS011;34173;47.446;18.912;2022-10-12T11:35:04;14.82;;;6.82;;
48367;SDS011;34173;47.446;18.912;2022-10-12T11:37:37;12.63;;;6.72;;
48367;SDS011;34173;47.446;18.912;2022-10-12T11:40:16;13.62;;;6.60;;
48367;SDS011;34173;47.446;18.912;2022-10-12T11:42:52;12.15;;;6.70;;
48367;SDS011;34173;47.446;18.912;2022-10-12T11:48:00;10.93;;;5.70;;
48367;SDS011;34173;47.446;18.912;2022-10-12T11:50:32;10.45;;;6.10;;
48367;SDS011;34173;47.446;18.912;2022-10-12T11:53:06;11.60;;;6.03;;
48367;SDS011;34173;47.446;18.912;2022-10-12T11:58:41;10.23;;;6.25;;
48367;SDS011;34173;47.446;18.912;2022-10-12T12:01:34;14.15;;;6.03;;
48367;SDS011;34173;47.446;18.912;2022-10-12T12:04:27;10.10;;;6.12;;
48367;SDS011;34173;47.446;18.912;2022-10-12T12:15:38;12.50;;;6.57;;
48367;SDS011;34173;47.446;18.912;2022-10-12T12:18:16;12.73;;;5.37;;
48367;SDS011;34173;47.446;18.912;2022-10-12T12:23:18;10.45;;;5.50;;
48367;SDS011;34173;47.446;18.912;2022-10-12T12:26:05;11.80;;;5.93;;
48367;SDS011;34173;47.446;18.912;2022-10-12T12:29:06;11.18;;;6.62;;
48367;SDS011;34173;47.446;18.912;2022-10-12T12:31:36;13.48;;;6.20;;
48367;SDS011;34173;47.446;18.912;2022-10-12T12:34:13;10.00;;;6.10;;
48367;SDS011;34173;47.446;18.912;2022-10-12T12:36:43;12.25;;;6.10;;
48367;SDS011;34173;47.446;18.912;2022-10-12T12:41:59;15.73;;;6.35;;
48367;SDS011;34173;47.446;18.912;2022-10-12T12:49:57;11.30;;;5.93;;
48367;SDS011;34173;47.446;18.912;2022-10-12T12:52:31;13.05;;;6.05;;
48367;SDS011;34173;47.446;18.912;2022-10-12T12:57:46;14.60;;;6.47;;
48367;SDS011;34173;47.446;18.912;2022-10-12T13:00:44;9.70;;;5.47;;
48367;SDS011;34173;47.446;18.912;2022-10-12T13:14:44;13.45;;;6.85;;
48367;SDS011;34173;47.446;18.912;2022-10-12T13:20:17;16.37;;;6.28;;
48367;SDS011;34173;47.446;18.912;2022-10-12T13:22:47;13.02;;;5.95;;
48367;SDS011;34173;47.446;18.912;2022-10-12T13:25:19;12.13;;;6.45;;
48367;SDS011;34173;47.446;18.912;2022-10-12T13:27:53;10.70;;;6.03;;
48367;SDS011;34173;47.446;18.912;2022-10-12T13:36:00;14.55;;;6.20;;
48367;SDS011;34173;47.446;18.912;2022-10-12T13:38:32;8.52;;;5.55;;
48367;SDS011;34173;47.446;18.912;2022-10-12T13:43:42;10.00;;;6.00;;
48367;SDS011;34173;47.446;18.912;2022-10-12T13:46:11;10.57;;;5.78;;
48367;SDS011;34173;47.446;18.912;2022-10-12T13:48:43;11.75;;;5.72;;
48367;SDS011;34173;47.446;18.912;2022-10-12T13:51:27;8.63;;;5.20;;
48367;SDS011;34173;47.446;18.912;2022-10-12T13:53:56;10.68;;;5.97;;
48367;SDS011;34173;47.446;18.912;2022-10-12T13:56:27;9.65;;;5.95;;
48367;SDS011;34173;47.446;18.912;2022-10-12T13:58:56;10.35;;;5.72;;
48367;SDS011;34173;47.446;18.912;2022-10-12T14:01:26;9.77;;;5.37;;
48367;SDS011;34173;47.446;18.912;2022-10-12T14:04:00;10.95;;;5.28;;
48367;SDS011;34173;47.446;18.912;2022-10-12T14:06:32;9.50;;;5.60;;
48367;SDS011;34173;47.446;18.912;2022-10-12T14:09:08;8.13;;;5.03;;
48367;SDS011;34173;47.446;18.912;2022-10-12T14:11:36;9.45;;;4.82;;
48367;SDS011;34173;47.446;18.912;2022-10-12T14:14:04;11.50;;;5.03;;
48367;SDS011;34173;47.446;18.912;2022-10-12T14:16:32;10.30;;;4.90;;
48367;SDS011;34173;47.446;18.912;2022-10-12T14:22:19;10.73;;;5.00;;
48367;SDS011;34173;47.446;18.912;2022-10-12T14:24:52;8.82;;;4.82;;
48367;SDS011;34173;47.446;18.912;2022-10-12T14:27:42;8.63;;;5.07;;
48367;SDS011;34173;47.446;18.912;2022-10-12T14:30:23;8.50;;;5.28;;
48367;SDS011;34173;47.446;18.912;2022-10-12T14:32:53;10.45;;;5.22;;
48367;SDS011;34173;47.446;18.912;2022-10-12T14:35:28;10.52;;;5.82;;
48367;SDS011;34173;47.446;18.912;2022-10-12T14:37:56;8.90;;;4.70;;
48367;SDS011;34173;47.446;18.912;2022-10-12T14:43:04;9.05;;;5.10;;
48367;SDS011;34173;47.446;18.912;2022-10-12T14:45:40;10.15;;;5.03;;
48367;SDS011;34173;47.446;18.912;2022-10-12T14:48:09;10.13;;;5.18;;
48367;SDS011;34173;47.446;18.912;2022-10-12T14:50:41;7.80;;;5.07;;
48367;SDS011;34173;47.446;18.912;2022-10-12T14:53:10;10.27;;;5.53;;
48367;SDS011;34173;47.446;18.912;2022-10-12T14:55:39;9.18;;;5.00;;
48367;SDS011;34173;47.446;18.912;2022-10-12T14:58:10;9.80;;;5.22;;
48367;SDS011;34173;47.446;18.912;2022-10-12T15:00:40;10.98;;;5.32;;
48367;SDS011;34173;47.446;18.912;2022-10-12T15:03:08;11.10;;;5.53;;
48367;SDS011;34173;47.446;18.912;2022-10-12T15:05:36;9.20;;;5.65;;
48367;SDS011;34173;47.446;18.912;2022-10-12T15:08:03;7.82;;;5.03;;
48367;SDS011;34173;47.446;18.912;2022-10-12T15:10:35;9.50;;;5.37;;
48367;SDS011;34173;47.446;18.912;2022-10-12T15:13:03;11.57;;;5.05;;
48367;SDS011;34173;47.446;18.912;2022-10-12T15:15:41;11.70;;;5.53;;
48367;SDS011;34173;47.446;18.912;2022-10-12T15:18:11;8.98;;;5.20;;
48367;SDS011;34173;47.446;18.912;2022-10-12T15:20:38;11.52;;;6.25;;
48367;SDS011;34173;47.446;18.912;2022-10-12T15:23:13;12.25;;;6.18;;
48367;SDS011;34173;47.446;18.912;2022-10-12T15:25:46;36.15;;;7.18;;
48367;SDS011;34173;47.446;18.912;2022-10-12T15:28:16;22.92;;;6.93;;
48367;SDS011;34173;47.446;18.912;2022-10-12T15:30:44;12.27;;;6.57;;
48367;SDS011;34173;47.446;18.912;2022-10-12T15:33:32;15.90;;;6.03;;
48367;SDS011;34173;47.446;18.912;2022-10-12T15:36:00;16.60;;;8.40;;
48367;SDS011;34173;47.446;18.912;2022-10-12T15:38:27;25.37;;;11.00;;
48367;SDS011;34173;47.446;18.912;2022-10-12T15:40:55;15.93;;;9.82;;
48367;SDS011;34173;47.446;18.912;2022-10-12T15:43:24;22.45;;;11.20;;
48367;SDS011;34173;47.446;18.912;2022-10-12T15:45:52;17.77;;;12.23;;
48367;SDS011;34173;47.446;18.912;2022-10-12T15:48:19;17.50;;;11.23;;
48367;SDS011;34173;47.446;18.912;2022-10-12T15:50:47;26.55;;;14.23;;
48367;SDS011;34173;47.446;18.912;2022-10-12T15:53:16;29.85;;;16.67;;
48367;SDS011;34173;47.446;18.912;2022-10-12T15:55:47;20.85;;;11.18;;
48367;SDS011;34173;47.446;18.912;2022-10-12T15:58:14;19.83;;;10.57;;
48367;SDS011;34173;47.446;18.912;2022-10-12T16:00:42;20.85;;;10.77;;
48367;SDS011;34173;47.446;18.912;2022-10-12T16:03:14;23.15;;;11.85;;
48367;SDS011;34173;47.446;18.912;2022-10-12T16:05:48;17.58;;;10.48;;
48367;SDS011;34173;47.446;18.912;2022-10-12T16:08:16;19.37;;;12.27;;
48367;SDS011;34173;47.446;18.912;2022-10-12T16:10:43;24.10;;;13.55;;
48367;SDS011;34173;47.446;18.912;2022-10-12T16:13:12;21.05;;;12.80;;
48367;SDS011;34173;47.446;18.912;2022-10-12T16:15:40;23.15;;;13.60;;
48367;SDS011;34173;47.446;18.912;2022-10-12T16:18:09;25.55;;;14.30;;
48367;SDS011;34173;47.446;18.912;2022-10-12T16:20:37;21.50;;;14.80;;
48367;SDS011;34173;47.446;18.912;2022-10-12T16:23:07;30.27;;;14.87;;
48367;SDS011;34173;47.446;18.912;2022-10-12T16:25:37;24.15;;;14.25;;
48367;SDS011;34173;47.446;18.912;2022-10-12T16:28:05;26.65;;;15.75;;
48367;SDS011;34173;47.446;18.912;2022-10-12T16:30:32;21.40;;;12.95;;
48367;SDS011;34173;47.446;18.912;2022-10-12T16:33:00;25.35;;;15.05;;
48367;SDS011;34173;47.446;18.912;2022-10-12T16:35:28;35.72;;;14.77;;
48367;SDS011;34173;47.446;18.912;2022-10-12T16:37:55;30.05;;;14.30;;
48367;SDS011;34173;47.446;18.912;2022-10-12T16:40:22;26.77;;;13.20;;